createdAt,value
2017-10-30T00:03:59.289Z,92.80
2017-10-30T00:09:03.244Z,94.20
2017-10-30T00:14:06.420Z,94.20
2017-10-30T00:19:09.634Z,94.70
2017-10-30T00:24:12.810Z,94.30
2017-10-30T00:29:16.150Z,94.80
2017-10-30T00:34:19.366Z,94.60
2017-10-30T00:39:22.556Z,93.50
2017-10-30T00:44:26.510Z,94.30
2017-10-30T00:49:30.665Z,94.30
2017-10-30T00:54:33.851Z,94.00
2017-10-30T00:59:37.045Z,93.70
2017-10-30T01:04:40.421Z,93.50
2017-10-30T01:09:43.783Z,93.90
2017-10-30T01:14:46.941Z,93.60
2017-10-30T01:19:50.868Z,93.30
2017-10-30T01:24:54.818Z,94.10
2017-10-30T01:29:58.119Z,94.10
2017-10-30T01:35:01.365Z,94.70
2017-10-30T01:40:04.543Z,95.20
2017-10-30T01:45:07.722Z,96.00
2017-10-30T01:50:11.639Z,96.40
2017-10-30T01:55:15.607Z,95.90
2017-10-30T02:00:18.768Z,95.90
2017-10-30T02:05:21.974Z,94.90
2017-10-30T02:10:25.911Z,94.30
2017-10-30T02:15:29.089Z,94.20
2017-10-30T02:20:32.250Z,94.60
2017-10-30T02:25:35.509Z,93.40
2017-10-30T02:30:39.447Z,93.10
2017-10-30T02:35:43.383Z,93.40
2017-10-30T02:40:46.621Z,93.40
2017-10-30T02:45:49.988Z,94.80
2017-10-30T02:50:53.161Z,94.60
2017-10-30T02:55:56.335Z,94.00
2017-10-30T03:00:59.490Z,93.10
2017-10-30T03:06:02.634Z,92.90
2017-10-30T03:11:05.810Z,93.80
2017-10-30T03:16:09.752Z,95.10
2017-10-30T03:21:12.925Z,95.00
2017-10-30T03:26:16.886Z,95.50
2017-10-30T03:31:20.063Z,95.40
2017-10-30T03:36:24.008Z,95.60
2017-10-30T03:41:27.285Z,95.60
2017-10-30T03:46:31.250Z,97.30
2017-10-30T03:51:34.427Z,97.20
2017-10-30T03:56:38.400Z,97.40
2017-10-30T04:01:41.570Z,97.50
2017-10-30T04:06:44.752Z,97.90
2017-10-30T04:11:48.698Z,98.10
2017-10-30T04:16:51.872Z,98.00
2017-10-30T04:21:55.042Z,97.80
2017-10-30T04:26:58.221Z,98.00
2017-10-30T04:32:01.421Z,98.00
2017-10-30T04:37:04.600Z,99.20
2017-10-30T04:42:07.794Z,99.60
2017-10-30T04:47:10.969Z,99.00
2017-10-30T04:52:14.164Z,99.20
2017-10-30T04:57:17.329Z,98.50
2017-10-30T05:02:21.285Z,97.30
2017-10-30T05:07:24.481Z,97.30
2017-10-30T05:12:27.663Z,96.90
2017-10-30T05:17:31.644Z,95.80
2017-10-30T05:22:34.829Z,95.80
2017-10-30T05:27:38.007Z,95.90
2017-10-30T05:32:41.950Z,95.90
2017-10-30T05:37:45.151Z,95.90
2017-10-30T05:42:48.355Z,96.20
2017-10-30T05:47:51.528Z,96.10
2017-10-30T05:52:54.732Z,96.90
2017-10-30T05:57:57.896Z,96.70
2017-10-30T06:03:01.092Z,96.80
2017-10-30T06:08:04.337Z,96.70
2017-10-30T06:13:07.527Z,96.10
2017-10-30T06:18:10.798Z,96.00
2017-10-30T06:23:14.041Z,95.60
2017-10-30T06:28:17.236Z,94.90
2017-10-30T06:33:20.436Z,95.10
2017-10-30T06:38:23.636Z,94.20
2017-10-30T06:43:26.793Z,94.00
2017-10-30T06:48:30.073Z,93.80
2017-10-30T06:53:33.254Z,93.60
2017-10-30T06:58:36.605Z,94.40
2017-10-30T07:03:39.953Z,93.80
2017-10-30T07:08:43.909Z,92.80
2017-10-30T07:13:47.124Z,92.80
2017-10-30T07:18:50.333Z,92.60
2017-10-30T07:23:53.495Z,92.30
2017-10-30T07:28:57.446Z,92.60
2017-10-30T07:34:00.668Z,92.50
2017-10-30T07:39:03.849Z,96.30
2017-10-30T07:44:07.108Z,89.50
2017-10-30T07:49:10.300Z,88.60
2017-10-30T07:54:13.510Z,89.30
2017-10-30T07:59:16.761Z,87.90
2017-10-30T08:04:20.698Z,86.90
2017-10-30T08:09:24.058Z,86.90
2017-10-30T08:14:27.233Z,88.60
2017-10-30T08:19:30.441Z,89.30
2017-10-30T08:24:33.624Z,87.60
2017-10-30T08:29:36.805Z,86.80
2017-10-30T08:34:40.746Z,86.10
2017-10-30T08:39:44.725Z,85.40
2017-10-30T08:44:47.984Z,85.40
2017-10-30T08:49:51.918Z,86.20
2017-10-30T08:54:55.085Z,86.30
2017-10-30T08:59:59.584Z,87.10
2017-10-30T09:05:02.764Z,86.70
2017-10-30T09:10:05.929Z,85.40
2017-10-30T09:15:09.168Z,85.40
2017-10-30T09:20:12.404Z,84.50
2017-10-30T09:25:15.669Z,87.10
2017-10-30T09:30:19.734Z,83.50
2017-10-30T09:35:22.895Z,83.50
2017-10-30T09:40:26.879Z,83.40
2017-10-30T09:45:30.038Z,83.40
2017-10-30T09:50:33.205Z,83.60
2017-10-30T09:55:36.371Z,81.00
2017-10-30T10:00:39.583Z,82.30
2017-10-30T10:05:42.756Z,83.40
2017-10-30T10:10:46.765Z,81.70
2017-10-30T10:15:50.103Z,81.70
2017-10-30T10:20:53.299Z,81.00
2017-10-30T10:25:56.665Z,79.00
2017-10-30T10:30:59.864Z,82.40
2017-10-30T10:36:03.049Z,79.60
2017-10-30T10:41:06.325Z,77.90
2017-10-30T10:46:10.266Z,79.50
2017-10-30T10:51:13.463Z,79.60
2017-10-30T10:56:17.401Z,78.10
2017-10-30T11:01:20.575Z,78.10
2017-10-30T11:06:24.503Z,76.60
2017-10-30T11:11:28.470Z,73.80
2017-10-30T11:16:31.674Z,73.60
2017-10-30T11:21:34.915Z,73.40
2017-10-30T11:26:38.113Z,71.70
2017-10-30T11:31:41.302Z,70.40
2017-10-30T11:36:44.623Z,74.70
2017-10-30T11:41:47.797Z,74.30
2017-10-30T11:46:50.990Z,71.00
2017-10-30T11:51:54.949Z,73.10
2017-10-30T11:56:58.287Z,73.00
2017-10-30T12:02:01.487Z,69.70
2017-10-30T12:07:04.723Z,67.00
2017-10-30T12:12:07.962Z,66.00
2017-10-30T12:17:11.242Z,64.20
2017-10-30T12:22:15.198Z,69.00
2017-10-30T12:27:18.404Z,68.90
2017-10-30T12:32:21.736Z,64.60
2017-10-30T12:37:24.946Z,65.00
2017-10-30T12:42:28.140Z,66.70
2017-10-30T12:47:31.360Z,64.60
2017-10-30T12:52:34.570Z,66.60
2017-10-30T12:57:37.846Z,67.00
2017-10-30T13:02:41.034Z,61.40
2017-10-30T13:07:44.353Z,61.40
2017-10-30T13:12:47.570Z,61.80
2017-10-30T13:17:50.783Z,62.00
2017-10-30T13:22:54.002Z,62.00
2017-10-30T13:27:57.220Z,63.30
2017-10-30T13:33:00.402Z,63.50
2017-10-30T13:38:03.590Z,61.80
2017-10-30T13:43:06.784Z,64.10
2017-10-30T13:48:10.036Z,65.90
2017-10-30T13:53:13.585Z,64.50
2017-10-30T13:58:17.017Z,64.70
2017-10-30T14:03:20.460Z,64.70
2017-10-30T14:08:23.784Z,65.60
2017-10-30T14:13:27.003Z,65.20
2017-10-30T14:18:30.355Z,64.00
2017-10-30T14:23:33.617Z,66.00
2017-10-30T14:28:36.894Z,64.20
2017-10-30T14:33:40.126Z,65.10
2017-10-30T14:38:43.330Z,64.70
2017-10-30T14:43:46.764Z,67.80
2017-10-30T14:48:49.922Z,66.60
2017-10-30T14:53:53.213Z,66.20
2017-10-30T14:58:56.422Z,67.60
2017-10-30T15:03:59.680Z,64.60
2017-10-30T15:09:02.875Z,66.10
2017-10-30T15:14:06.128Z,66.30
2017-10-30T15:19:10.093Z,65.50
2017-10-30T15:24:13.271Z,65.50
2017-10-30T15:29:16.630Z,65.80
2017-10-30T15:34:19.809Z,67.60
2017-10-30T15:39:22.997Z,69.70
2017-10-30T15:44:26.202Z,69.50
2017-10-30T15:49:29.390Z,70.00
2017-10-30T15:54:32.697Z,71.20
2017-10-30T15:59:36.653Z,69.70
2017-10-30T16:04:39.890Z,69.70
2017-10-30T16:09:43.161Z,72.40
2017-10-30T16:14:46.513Z,71.20
2017-10-30T16:19:49.762Z,71.60
2017-10-30T16:24:53.154Z,73.00
2017-10-30T16:29:56.529Z,72.90
2017-10-30T16:34:59.744Z,73.10
2017-10-30T16:40:03.076Z,73.20
2017-10-30T16:45:07.141Z,72.00
2017-10-30T16:50:10.389Z,73.00
2017-10-30T16:55:13.585Z,73.10
2017-10-30T17:00:16.769Z,72.80
2017-10-30T17:05:20.051Z,71.60
2017-10-30T17:10:24.019Z,72.90
2017-10-30T17:15:27.416Z,72.80
2017-10-30T17:20:31.420Z,73.20
2017-10-30T17:25:34.829Z,73.00
2017-10-30T17:30:39.602Z,74.70
2017-10-30T17:35:42.802Z,74.70
2017-10-30T17:41:12.165Z,75.40
2017-10-30T17:46:15.367Z,76.70
2017-10-30T17:51:18.563Z,76.80
2017-10-30T17:56:21.778Z,76.90
2017-10-30T18:01:24.975Z,76.60
2017-10-30T18:06:28.189Z,78.00
2017-10-30T18:11:31.362Z,77.60
2017-10-30T18:16:34.560Z,79.20
2017-10-30T18:21:37.772Z,79.70
2017-10-30T18:26:40.968Z,79.80
2017-10-30T18:31:44.188Z,79.40
2017-10-30T18:36:47.386Z,80.00
2017-10-30T18:41:50.588Z,79.10
2017-10-30T18:46:53.802Z,79.30
2017-10-30T18:51:56.979Z,80.50
2017-10-30T18:57:00.146Z,82.20
2017-10-30T19:02:03.297Z,83.00
2017-10-30T19:07:06.501Z,83.60
2017-10-30T19:12:09.690Z,84.30
2017-10-30T19:17:12.893Z,85.00
2017-10-30T19:22:16.125Z,85.60
2017-10-30T19:27:19.324Z,86.00
2017-10-30T19:32:22.547Z,86.20
2017-10-30T19:37:25.747Z,86.30
2017-10-30T19:42:28.996Z,86.30
2017-10-30T19:47:32.971Z,89.90
2017-10-30T19:52:36.187Z,89.80
2017-10-30T19:57:39.365Z,89.90
2017-10-30T20:02:42.579Z,90.50
2017-10-30T20:07:51.310Z,89.00
2017-10-30T20:12:54.521Z,89.20
2017-10-30T20:17:57.759Z,90.00
2017-10-30T20:23:00.988Z,90.70
2017-10-30T20:28:04.203Z,90.40
2017-10-30T20:33:08.170Z,90.00
2017-10-30T20:38:11.407Z,90.00
2017-10-30T20:43:14.623Z,91.00
2017-10-30T20:48:17.835Z,90.70
2017-10-30T20:53:21.824Z,92.40
2017-10-30T20:58:25.060Z,92.30
2017-10-30T21:03:28.276Z,92.40
2017-10-30T21:08:31.476Z,92.10
2017-10-30T21:13:34.692Z,93.40
2017-10-30T21:18:37.877Z,93.60
2017-10-30T21:23:41.107Z,93.90
2017-10-30T21:28:45.112Z,94.60
2017-10-30T21:33:48.289Z,94.50
2017-10-30T21:38:51.483Z,96.40
2017-10-30T21:43:54.771Z,96.70
2017-10-30T21:48:58.020Z,96.40
2017-10-30T21:54:01.214Z,96.40
2017-10-30T21:59:04.384Z,96.40
2017-10-30T22:04:08.426Z,97.30
2017-10-30T22:09:11.631Z,97.30
2017-10-30T22:14:15.604Z,97.30
2017-10-30T22:19:18.787Z,97.20
2017-10-30T22:24:21.997Z,98.50
2017-10-30T22:29:25.187Z,97.10
2017-10-30T22:34:28.373Z,97.10
2017-10-30T22:39:32.331Z,98.70
2017-10-30T22:44:35.555Z,98.80
2017-10-30T22:49:39.426Z,99.60
2017-10-30T22:54:42.655Z,99.90
2017-10-30T22:59:46.215Z,99.90
2017-10-30T23:04:49.569Z,99.90
2017-10-30T23:09:52.777Z,99.90
2017-10-30T23:14:55.980Z,99.90
2017-10-30T23:19:59.198Z,98.70
2017-10-30T23:25:02.406Z,98.70
2017-10-30T23:30:05.597Z,99.60
2017-10-30T23:35:08.923Z,99.60
2017-10-30T23:40:12.109Z,99.70
2017-10-30T23:45:15.309Z,99.90
2017-10-30T23:50:18.491Z,99.90
2017-10-30T23:55:21.706Z,99.90
